Time;durP1;ratioP1;P1;durP2;ratioP2;P2;SDS_P1;SDS_P2;PMS_P1;PMS_P2;Temp;Humidity;BMP_temperature;BMP_pressure;BME280_temperature;BME280_humidity;BME280_pressure;Samples;Min_cycle;Max_cycle;Signal;HPM_P1;HPM_P2
2023/11/09 00:00:00;;;;;;;9.50;3.72;;;;;;;;;;4855143;29;20056;-73
2023/11/09 00:02:34;;;;;;;9.73;3.20;;;;;;;;;;4887488;29;20053;-73
2023/11/09 00:05:05;;;;;;;7.65;3.35;;;;;;;;;;4887073;29;20056;-73
2023/11/09 00:07:36;;;;;;;14.52;3.30;;;;;;;;;;4886464;29;20049;-73
2023/11/09 00:10:08;;;;;;;8.52;3.58;;;;;;;;;;4886831;29;20063;-73
2023/11/09 00:12:43;;;;;;;13.05;4.35;;;;;;;;;;4885476;29;20052;-73
2023/11/09 00:15:16;;;;;;;8.15;3.45;;;;;;;;;;4886944;29;20055;-74
2023/11/09 00:17:47;;;;;;;14.02;3.90;;;;;;;;;;4887242;29;20052;-74
2023/11/09 00:20:20;;;;;;;10.32;3.80;;;;;;;;;;4887496;29;20052;-74
2023/11/09 00:22:53;;;;;;;11.75;4.05;;;;;;;;;;4886685;29;20052;-74
2023/11/09 00:25:33;;;;;;;12.88;4.18;;;;;;;;;;4885922;29;20516;-75
2023/11/09 00:28:05;;;;;;;11.25;4.05;;;;;;;;;;4885327;29;20635;-73
2023/11/09 00:30:35;;;;;;;13.38;4.00;;;;;;;;;;4870530;29;20064;-73
2023/11/09 00:33:06;;;;;;;15.88;4.72;;;;;;;;;;4885427;29;20060;-74
2023/11/09 00:35:39;;;;;;;7.65;4.10;;;;;;;;;;4887908;29;20044;-75
2023/11/09 00:38:14;;;;;;;11.27;4.25;;;;;;;;;;4893699;29;20060;-73
2023/11/09 00:40:44;;;;;;;6.68;3.63;;;;;;;;;;4885876;29;20057;-74
2023/11/09 00:43:15;;;;;;;13.63;3.88;;;;;;;;;;4887677;29;20045;-76
2023/11/09 00:45:46;;;;;;;10.88;4.10;;;;;;;;;;4887729;29;20068;-74
2023/11/09 00:48:16;;;;;;;8.85;3.67;;;;;;;;;;4889628;29;20886;-76
2023/11/09 00:50:47;;;;;;;7.60;4.22;;;;;;;;;;4889598;29;20989;-76
2023/11/09 00:53:21;;;;;;;10.85;3.83;;;;;;;;;;4889228;29;20071;-75
2023/11/09 00:55:55;;;;;;;7.50;3.92;;;;;;;;;;4888180;29;20073;-76
2023/11/09 00:58:37;;;;;;;7.18;3.90;;;;;;;;;;4890390;29;20060;-74
2023/11/09 01:01:27;;;;;;;6.18;3.70;;;;;;;;;;4888919;29;20057;-73
2023/11/09 01:03:57;;;;;;;8.43;3.90;;;;;;;;;;4889354;29;20495;-73
2023/11/09 01:06:31;;;;;;;9.20;3.90;;;;;;;;;;4889430;29;20542;-74
2023/11/09 01:09:02;;;;;;;8.07;3.83;;;;;;;;;;4888133;29;20053;-73
2023/11/09 01:11:34;;;;;;;8.07;4.75;;;;;;;;;;4888631;29;20071;-76
2023/11/09 01:14:06;;;;;;;12.60;4.40;;;;;;;;;;4888795;29;20068;-76
2023/11/09 01:16:38;;;;;;;6.20;3.90;;;;;;;;;;4888695;29;20059;-74
2023/11/09 01:19:10;;;;;;;10.70;4.45;;;;;;;;;;4888327;29;20048;-74
2023/11/09 01:21:42;;;;;;;13.77;4.25;;;;;;;;;;4886918;29;20504;-75
2023/11/09 01:24:14;;;;;;;6.90;3.92;;;;;;;;;;4889182;29;20062;-75
2023/11/09 01:26:44;;;;;;;10.02;4.03;;;;;;;;;;4888884;29;20048;-75
2023/11/09 01:29:15;;;;;;;9.73;3.63;;;;;;;;;;4889795;29;20515;-73
2023/11/09 01:31:47;;;;;;;8.68;3.80;;;;;;;;;;4890084;29;20516;-72
2023/11/09 01:34:20;;;;;;;8.90;3.88;;;;;;;;;;4888559;29;20527;-73
2023/11/09 01:36:53;;;;;;;8.90;4.07;;;;;;;;;;4887616;29;20528;-76
2023/11/09 01:39:24;;;;;;;10.10;4.00;;;;;;;;;;4888750;29;20607;-74
2023/11/09 01:41:55;;;;;;;8.57;3.65;;;;;;;;;;4889212;29;20061;-76
2023/11/09 01:44:26;;;;;;;7.60;3.72;;;;;;;;;;4887903;29;20052;-73
2023/11/09 01:47:00;;;;;;;10.98;3.65;;;;;;;;;;4890561;29;20072;-75
2023/11/09 01:49:32;;;;;;;6.13;3.22;;;;;;;;;;4888773;29;20049;-76
2023/11/09 01:52:03;;;;;;;8.20;3.22;;;;;;;;;;4888088;29;20056;-75
2023/11/09 01:54:36;;;;;;;9.85;4.30;;;;;;;;;;4888136;29;20053;-74
2023/11/09 01:57:10;;;;;;;9.63;5.63;;;;;;;;;;4888960;29;20068;-74
2023/11/09 01:59:44;;;;;;;10.25;5.43;;;;;;;;;;4888281;29;20053;-75
2023/11/09 02:02:15;;;;;;;9.35;5.22;;;;;;;;;;4887386;29;20063;-74
2023/11/09 02:04:47;;;;;;;17.08;6.35;;;;;;;;;;4903164;29;20059;-72
2023/11/09 02:07:20;;;;;;;12.90;6.35;;;;;;;;;;4889679;29;20083;-76
2023/11/09 02:09:51;;;;;;;13.10;6.90;;;;;;;;;;4889372;29;20060;-75
2023/11/09 02:12:22;;;;;;;10.27;6.95;;;;;;;;;;4888202;29;20067;-74
2023/11/09 02:14:55;;;;;;;18.33;8.40;;;;;;;;;;4888938;29;20056;-75
2023/11/09 02:17:25;;;;;;;16.50;8.52;;;;;;;;;;4888704;29;20075;-73
2023/11/09 02:19:56;;;;;;;13.02;8.18;;;;;;;;;;4888342;29;20068;-73
2023/11/09 02:22:28;;;;;;;15.63;7.88;;;;;;;;;;4888473;29;20063;-73
2023/11/09 02:25:00;;;;;;;14.13;7.68;;;;;;;;;;4887909;29;20526;-76
2023/11/09 02:27:30;;;;;;;12.02;6.80;;;;;;;;;;4903026;29;20055;-75
2023/11/09 02:30:02;;;;;;;15.02;6.85;;;;;;;;;;4888781;29;20056;-75
2023/11/09 02:32:34;;;;;;;11.75;6.07;;;;;;;;;;4887304;29;20082;-72
2023/11/09 02:35:08;;;;;;;11.23;5.60;;;;;;;;;;4888730;29;20056;-74
2023/11/09 02:37:39;;;;;;;12.07;5.47;;;;;;;;;;4887907;29;20064;-73
2023/11/09 02:40:10;;;;;;;12.75;5.70;;;;;;;;;;4886243;29;20053;-73
2023/11/09 02:42:40;;;;;;;10.18;5.75;;;;;;;;;;4887313;29;20063;-74
2023/11/09 02:45:11;;;;;;;12.10;5.55;;;;;;;;;;4888349;29;20048;-74
2023/11/09 02:47:41;;;;;;;10.45;5.53;;;;;;;;;;4888417;29;20048;-74
2023/11/09 02:50:12;;;;;;;8.40;4.93;;;;;;;;;;4886816;29;20551;-72
2023/11/09 02:52:43;;;;;;;11.85;4.97;;;;;;;;;;4888389;29;20056;-77
2023/11/09 02:55:14;;;;;;;9.35;4.90;;;;;;;;;;4888366;29;20815;-74
2023/11/09 02:57:43;;;;;;;9.10;4.93;;;;;;;;;;4887418;29;20060;-74
2023/11/09 03:00:14;;;;;;;11.02;5.22;;;;;;;;;;4887552;29;20122;-72
2023/11/09 03:02:45;;;;;;;10.77;4.85;;;;;;;;;;4887282;29;20067;-76
2023/11/09 03:05:21;;;;;;;10.27;4.80;;;;;;;;;;4888596;29;20052;-75
2023/11/09 03:07:51;;;;;;;7.43;4.43;;;;;;;;;;4887573;29;20064;-73
2023/11/09 03:10:21;;;;;;;14.88;5.20;;;;;;;;;;4887294;29;20052;-74
2023/11/09 03:12:54;;;;;;;9.27;4.28;;;;;;;;;;4887576;29;20052;-73
2023/11/09 03:15:25;;;;;;;7.57;4.80;;;;;;;;;;4886376;29;20083;-73
2023/11/09 03:17:56;;;;;;;9.45;4.50;;;;;;;;;;4887746;29;20056;-72
2023/11/09 03:20:27;;;;;;;9.10;5.13;;;;;;;;;;4885695;29;20064;-73
2023/11/09 03:22:58;;;;;;;9.70;4.65;;;;;;;;;;4887410;29;20420;-72
2023/11/09 03:25:28;;;;;;;9.32;4.32;;;;;;;;;;4887154;29;20051;-72
2023/11/09 03:27:58;;;;;;;8.15;4.63;;;;;;;;;;4886190;29;20063;-72
2023/11/09 03:30:30;;;;;;;7.68;4.68;;;;;;;;;;4886362;29;20071;-73
2023/11/09 03:33:01;;;;;;;10.30;4.05;;;;;;;;;;4887473;29;20044;-72
2023/11/09 03:35:32;;;;;;;10.00;3.92;;;;;;;;;;4887037;29;20048;-74
2023/11/09 03:38:03;;;;;;;6.40;4.00;;;;;;;;;;4886506;29;20421;-73
2023/11/09 03:40:34;;;;;;;6.55;3.72;;;;;;;;;;4887279;29;20056;-77
2023/11/09 03:43:05;;;;;;;7.90;3.90;;;;;;;;;;4886336;29;20064;-73
2023/11/09 03:45:36;;;;;;;5.43;3.80;;;;;;;;;;4886707;29;20057;-73
2023/11/09 03:48:06;;;;;;;8.75;4.47;;;;;;;;;;4887051;29;20052;-75
2023/11/09 03:50:38;;;;;;;7.22;3.97;;;;;;;;;;4887067;29;20428;-77
2023/11/09 03:53:08;;;;;;;6.43;3.50;;;;;;;;;;4901482;29;20053;-76
2023/11/09 03:55:39;;;;;;;10.00;4.03;;;;;;;;;;4887176;29;20095;-77
2023/11/09 03:58:09;;;;;;;6.18;3.45;;;;;;;;;;4887390;29;20515;-75
2023/11/09 04:00:40;;;;;;;6.05;3.88;;;;;;;;;;4886657;29;20063;-74
2023/11/09 04:03:14;;;;;;;6.60;3.72;;;;;;;;;;4885700;29;20068;-76
2023/11/09 04:05:44;;;;;;;9.20;4.43;;;;;;;;;;4887207;29;20052;-77
2023/11/09 04:08:14;;;;;;;7.22;3.60;;;;;;;;;;4887450;29;20043;-75
2023/11/09 04:10:49;;;;;;;5.93;3.83;;;;;;;;;;4887491;29;20508;-76
2023/11/09 04:13:20;;;;;;;7.47;4.05;;;;;;;;;;4886969;29;20045;-75
2023/11/09 04:15:50;;;;;;;7.25;3.70;;;;;;;;;;4886831;29;20051;-75
2023/11/09 04:18:23;;;;;;;6.47;4.25;;;;;;;;;;4886910;29;20052;-76
2023/11/09 04:20:53;;;;;;;6.07;4.20;;;;;;;;;;4887166;29;20078;-75
2023/11/09 04:23:22;;;;;;;7.80;4.53;;;;;;;;;;4886995;29;20087;-76
2023/11/09 04:25:54;;;;;;;10.40;5.68;;;;;;;;;;4886643;29;20063;-76
2023/11/09 04:28:25;;;;;;;10.57;5.03;;;;;;;;;;4886842;29;20059;-77
2023/11/09 04:30:56;;;;;;;9.88;5.30;;;;;;;;;;4887152;29;20052;-77
2023/11/09 04:33:27;;;;;;;10.00;5.35;;;;;;;;;;4886554;29;20052;-77
2023/11/09 04:35:58;;;;;;;11.15;5.63;;;;;;;;;;4886796;29;20508;-76
2023/11/09 04:38:30;;;;;;;7.82;5.40;;;;;;;;;;4886684;29;20518;-76
2023/11/09 04:41:05;;;;;;;9.15;5.60;;;;;;;;;;4887807;29;20610;-76
2023/11/09 04:43:37;;;;;;;10.90;5.35;;;;;;;;;;4890259;29;20045;-75
2023/11/09 04:46:11;;;;;;;9.60;5.43;;;;;;;;;;4889981;29;20536;-76
2023/11/09 04:48:46;;;;;;;12.52;5.40;;;;;;;;;;4890136;29;20056;-74
2023/11/09 04:51:22;;;;;;;7.80;5.55;;;;;;;;;;4890193;29;20512;-76
2023/11/09 04:53:52;;;;;;;11.50;6.32;;;;;;;;;;4889943;29;20487;-76
2023/11/09 04:56:38;;;;;;;14.05;5.82;;;;;;;;;;4889734;29;20122;-75
2023/11/09 05:07:37;;;;;;;10.93;5.60;;;;;;;;;;4887597;29;20063;-74
2023/11/09 05:10:08;;;;;;;9.10;5.63;;;;;;;;;;4890077;29;20056;-73
2023/11/09 05:12:39;;;;;;;11.10;6.50;;;;;;;;;;4889825;29;20461;-74
2023/11/09 05:15:10;;;;;;;10.40;5.68;;;;;;;;;;4889661;29;20064;-75
2023/11/09 05:17:40;;;;;;;10.25;6.00;;;;;;;;;;4903967;29;20516;-75
2023/11/09 05:20:13;;;;;;;11.18;5.30;;;;;;;;;;4889314;29;20052;-76
2023/11/09 05:22:44;;;;;;;11.75;5.57;;;;;;;;;;4888967;29;20416;-76
2023/11/09 05:25:15;;;;;;;11.27;5.82;;;;;;;;;;4888608;29;20064;-76
2023/11/09 05:27:46;;;;;;;11.60;5.28;;;;;;;;;;4889306;29;20052;-75
2023/11/09 05:30:17;;;;;;;10.07;5.85;;;;;;;;;;4888839;29;20052;-75
2023/11/09 05:32:48;;;;;;;9.95;6.10;;;;;;;;;;4889760;29;20044;-75
2023/11/09 05:35:19;;;;;;;11.05;6.07;;;;;;;;;;4889410;29;20611;-76
2023/11/09 05:37:49;;;;;;;9.77;5.47;;;;;;;;;;4889019;29;20135;-76
2023/11/09 05:40:21;;;;;;;8.23;5.82;;;;;;;;;;4890004;29;20052;-77
2023/11/09 05:42:51;;;;;;;12.32;5.80;;;;;;;;;;4888583;29;20052;-74
2023/11/09 05:45:22;;;;;;;10.90;5.95;;;;;;;;;;4889097;29;20055;-77
2023/11/09 05:47:53;;;;;;;9.15;5.50;;;;;;;;;;4888944;29;20048;-74
2023/11/09 05:50:24;;;;;;;8.57;5.28;;;;;;;;;;4889005;29;20055;-75
2023/11/09 05:52:55;;;;;;;9.52;5.70;;;;;;;;;;4887763;29;20052;-75
2023/11/09 05:55:25;;;;;;;13.45;6.25;;;;;;;;;;4887528;29;20057;-76
2023/11/09 05:57:58;;;;;;;9.50;6.18;;;;;;;;;;4888732;29;20055;-74
2023/11/09 06:00:31;;;;;;;10.57;6.07;;;;;;;;;;4889061;29;20056;-75
2023/11/09 06:03:03;;;;;;;11.68;5.97;;;;;;;;;;4888971;29;20517;-78
2023/11/09 06:05:33;;;;;;;11.98;6.10;;;;;;;;;;4888814;29;20056;-76
2023/11/09 06:08:04;;;;;;;10.20;5.43;;;;;;;;;;4888838;29;20059;-77
2023/11/09 06:10:34;;;;;;;11.10;6.38;;;;;;;;;;4888599;29;20056;-76
2023/11/09 06:13:07;;;;;;;15.38;6.45;;;;;;;;;;4888498;29;20562;-76
2023/11/09 06:15:37;;;;;;;13.57;6.75;;;;;;;;;;4888575;29;20060;-77
2023/11/09 06:18:10;;;;;;;12.20;6.75;;;;;;;;;;4888239;29;20516;-77
2023/11/09 06:20:44;;;;;;;12.48;7.07;;;;;;;;;;4888650;29;20052;-77
2023/11/09 06:23:14;;;;;;;12.63;6.18;;;;;;;;;;4888162;29;20059;-78
2023/11/09 06:25:44;;;;;;;10.40;6.28;;;;;;;;;;4887317;29;20067;-80
2023/11/09 06:28:15;;;;;;;10.73;6.68;;;;;;;;;;4888133;29;20530;-76
2023/11/09 06:30:45;;;;;;;13.80;6.75;;;;;;;;;;4888198;29;20509;-75
2023/11/09 06:33:16;;;;;;;13.23;6.95;;;;;;;;;;4888475;29;20052;-76
2023/11/09 06:35:48;;;;;;;11.40;6.30;;;;;;;;;;4888415;29;20056;-77
2023/11/09 06:38:22;;;;;;;11.10;6.55;;;;;;;;;;4888153;29;20523;-75
2023/11/09 06:40:52;;;;;;;9.80;6.07;;;;;;;;;;4887983;29;20614;-74
2023/11/09 06:43:23;;;;;;;9.25;6.13;;;;;;;;;;4887890;29;20134;-76
2023/11/09 06:45:55;;;;;;;13.05;6.60;;;;;;;;;;4887626;29;20424;-76
2023/11/09 06:48:26;;;;;;;10.68;6.78;;;;;;;;;;4887534;29;20512;-77
2023/11/09 06:50:58;;;;;;;10.23;6.45;;;;;;;;;;4887940;29;20509;-75
2023/11/09 06:53:29;;;;;;;13.82;6.13;;;;;;;;;;4888346;29;20052;-76
2023/11/09 06:55:59;;;;;;;12.07;6.03;;;;;;;;;;4885779;29;20067;-78
2023/11/09 06:58:29;;;;;;;12.48;6.93;;;;;;;;;;4887704;29;20076;-76
2023/11/09 07:00:59;;;;;;;12.75;7.32;;;;;;;;;;4887382;29;20823;-76
2023/11/09 07:03:30;;;;;;;13.50;8.45;;;;;;;;;;4887351;29;20413;-75
2023/11/09 07:06:00;;;;;;;12.90;7.97;;;;;;;;;;4888272;29;20095;-77
2023/11/09 07:08:31;;;;;;;12.50;7.72;;;;;;;;;;4886890;29;20887;-73
2023/11/09 07:11:01;;;;;;;17.25;8.85;;;;;;;;;;4886446;29;20405;-76
2023/11/09 07:13:37;;;;;;;12.38;7.68;;;;;;;;;;4887283;29;20064;-76
2023/11/09 07:16:10;;;;;;;15.23;7.18;;;;;;;;;;4888279;29;20670;-78
2023/11/09 07:18:43;;;;;;;12.85;7.88;;;;;;;;;;4886735;29;20041;-76
2023/11/09 07:21:14;;;;;;;11.38;7.88;;;;;;;;;;4887254;29;20048;-75
2023/11/09 07:23:45;;;;;;;11.25;7.50;;;;;;;;;;4887732;29;20526;-77
2023/11/09 07:26:17;;;;;;;15.25;8.30;;;;;;;;;;4887483;29;20529;-75
2023/11/09 07:28:48;;;;;;;12.82;8.05;;;;;;;;;;4887167;29;20417;-77
2023/11/09 07:31:20;;;;;;;16.13;8.30;;;;;;;;;;4886822;29;20052;-76
2023/11/09 07:33:50;;;;;;;12.02;8.02;;;;;;;;;;4887574;29;20165;-77
2023/11/09 07:36:21;;;;;;;13.52;8.30;;;;;;;;;;4886906;29;20428;-77
2023/11/09 07:38:52;;;;;;;13.98;8.27;;;;;;;;;;4887311;29;20048;-77
2023/11/09 07:41:27;;;;;;;11.23;7.65;;;;;;;;;;4887676;29;20067;-76
2023/11/09 07:43:58;;;;;;;16.33;7.93;;;;;;;;;;4887713;29;20048;-75
2023/11/09 07:46:29;;;;;;;15.60;8.60;;;;;;;;;;4887735;29;20467;-77
2023/11/09 07:49:02;;;;;;;13.18;7.97;;;;;;;;;;4887029;29;20049;-75
2023/11/09 07:51:32;;;;;;;13.93;8.77;;;;;;;;;;4887306;29;20409;-76
2023/11/09 07:54:07;;;;;;;13.48;8.63;;;;;;;;;;4888241;29;20049;-75
2023/11/09 07:56:39;;;;;;;13.35;8.52;;;;;;;;;;4887338;29;20067;-76
2023/11/09 07:59:10;;;;;;;15.30;8.48;;;;;;;;;;4887562;29;20048;-74
2023/11/09 08:01:40;;;;;;;15.45;7.90;;;;;;;;;;4886825;29;20409;-73
2023/11/09 08:04:12;;;;;;;13.98;7.97;;;;;;;;;;4887274;29;20053;-76
2023/11/09 08:06:46;;;;;;;13.05;7.88;;;;;;;;;;4886538;29;20057;-75
2023/11/09 08:09:19;;;;;;;13.88;8.27;;;;;;;;;;4886931;29;20044;-76
2023/11/09 08:11:49;;;;;;;14.18;8.70;;;;;;;;;;4888003;29;20053;-76
2023/11/09 08:14:19;;;;;;;15.88;9.55;;;;;;;;;;4887640;29;20052;-74
2023/11/09 08:16:51;;;;;;;15.32;9.00;;;;;;;;;;4888723;29;20060;-76
2023/11/09 08:19:22;;;;;;;15.50;9.25;;;;;;;;;;4890332;29;20501;-75
2023/11/09 08:21:52;;;;;;;12.88;8.57;;;;;;;;;;4890871;29;20063;-75
2023/11/09 08:24:22;;;;;;;12.25;7.90;;;;;;;;;;4893660;29;20048;-74
2023/11/09 08:26:52;;;;;;;14.98;8.70;;;;;;;;;;4892724;29;20048;-75
2023/11/09 08:29:24;;;;;;;19.42;9.07;;;;;;;;;;4891684;29;20081;-75
2023/11/09 08:32:01;;;;;;;11.90;7.57;;;;;;;;;;4891540;29;20048;-77
2023/11/09 08:34:31;;;;;;;16.10;8.70;;;;;;;;;;4892145;29;20052;-73
2023/11/09 08:37:06;;;;;;;15.05;9.27;;;;;;;;;;4890617;29;20055;-75
2023/11/09 08:39:39;;;;;;;15.65;9.18;;;;;;;;;;4889460;29;20057;-77
2023/11/09 08:42:09;;;;;;;12.68;8.90;;;;;;;;;;4890869;29;20045;-75
2023/11/09 08:44:41;;;;;;;16.42;8.40;;;;;;;;;;4890809;29;20848;-76
2023/11/09 08:47:12;;;;;;;16.20;8.50;;;;;;;;;;4890655;29;20048;-75
2023/11/09 08:49:43;;;;;;;13.63;8.10;;;;;;;;;;4889962;29;20052;-76
2023/11/09 08:52:14;;;;;;;15.93;7.47;;;;;;;;;;4890682;29;20079;-73
2023/11/09 08:54:46;;;;;;;11.80;7.57;;;;;;;;;;4890336;29;20059;-74
2023/11/09 08:57:17;;;;;;;11.13;6.85;;;;;;;;;;4892899;29;20072;-72
2023/11/09 08:59:50;;;;;;;10.73;6.47;;;;;;;;;;4893720;29;20059;-77
2023/11/09 09:02:20;;;;;;;10.80;6.40;;;;;;;;;;4890857;29;20055;-76
2023/11/09 09:04:50;;;;;;;10.60;6.32;;;;;;;;;;4890110;29;20056;-76
2023/11/09 09:07:22;;;;;;;13.57;6.65;;;;;;;;;;4890459;29;20522;-75
2023/11/09 09:09:53;;;;;;;11.43;6.38;;;;;;;;;;4889382;29;20048;-74
2023/11/09 09:12:23;;;;;;;14.93;7.00;;;;;;;;;;4889433;29;20053;-75
2023/11/09 09:14:54;;;;;;;10.20;6.43;;;;;;;;;;4890672;29;20060;-74
2023/11/09 09:17:25;;;;;;;12.25;6.82;;;;;;;;;;4889934;29;20052;-77
2023/11/09 09:19:56;;;;;;;10.52;6.15;;;;;;;;;;4890607;29;20051;-80
2023/11/09 09:22:28;;;;;;;11.68;7.18;;;;;;;;;;4890695;29;20055;-75
2023/11/09 09:25:00;;;;;;;12.70;7.57;;;;;;;;;;4890061;29;20052;-74
2023/11/09 09:27:30;;;;;;;16.05;9.07;;;;;;;;;;4890903;29;20397;-74
2023/11/09 09:30:00;;;;;;;17.15;10.18;;;;;;;;;;4890107;29;20063;-77
2023/11/09 09:32:37;;;;;;;14.77;9.88;;;;;;;;;;4890291;29;20052;-76
2023/11/09 09:35:10;;;;;;;16.23;11.07;;;;;;;;;;4890411;29;20118;-74
2023/11/09 09:37:42;;;;;;;22.13;11.73;;;;;;;;;;4889198;29;20052;-78
2023/11/09 09:40:19;;;;;;;19.60;11.73;;;;;;;;;;4888960;29;20053;-74
2023/11/09 09:42:53;;;;;;;18.73;11.95;;;;;;;;;;4889650;29;20079;-77
2023/11/09 09:45:27;;;;;;;22.52;12.43;;;;;;;;;;4889647;29;20065;-75
2023/11/09 09:48:02;;;;;;;21.70;12.50;;;;;;;;;;4889173;29;20064;-80
2023/11/09 09:50:35;;;;;;;20.52;13.00;;;;;;;;;;4889383;29;20535;-78
2023/11/09 09:53:09;;;;;;;19.63;13.05;;;;;;;;;;4873141;29;20056;-75
2023/11/09 09:55:41;;;;;;;21.13;13.57;;;;;;;;;;4889497;29;20053;-80
2023/11/09 09:58:11;;;;;;;19.08;12.88;;;;;;;;;;4904155;29;20056;-78
2023/11/09 10:00:42;;;;;;;21.15;13.13;;;;;;;;;;4889257;29;20056;-74
2023/11/09 10:03:13;;;;;;;15.48;9.93;;;;;;;;;;4889292;29;20076;-77
2023/11/09 10:05:44;;;;;;;16.17;9.25;;;;;;;;;;4889128;29;20071;-75
2023/11/09 10:08:15;;;;;;;14.95;8.30;;;;;;;;;;4889333;29;20052;-75
2023/11/09 10:10:52;;;;;;;11.48;6.25;;;;;;;;;;4888892;29;20056;-74
2023/11/09 10:13:27;;;;;;;11.50;6.30;;;;;;;;;;4889655;29;20061;-76
2023/11/09 10:15:59;;;;;;;11.27;6.20;;;;;;;;;;4889437;29;20048;-77
2023/11/09 10:18:34;;;;;;;9.60;6.03;;;;;;;;;;4889328;29;20523;-75
2023/11/09 10:21:06;;;;;;;9.15;5.50;;;;;;;;;;4888677;29;20440;-75
2023/11/09 10:23:38;;;;;;;10.95;5.50;;;;;;;;;;4887339;29;20356;-74
2023/11/09 10:26:11;;;;;;;8.73;5.22;;;;;;;;;;4888178;29;20416;-77
2023/11/09 10:28:43;;;;;;;10.65;5.72;;;;;;;;;;4887672;29;20056;-77
2023/11/09 10:31:31;;;;;;;10.50;5.10;;;;;;;;;;4889288;29;20501;-74
2023/11/09 10:34:04;;;;;;;15.20;5.65;;;;;;;;;;4888558;29;20059;-74
2023/11/09 10:36:37;;;;;;;10.18;5.20;;;;;;;;;;4889027;29;20524;-75
2023/11/09 10:39:23;;;;;;;10.45;5.13;;;;;;;;;;4888257;29;20048;-74
2023/11/09 10:41:54;;;;;;;10.60;5.60;;;;;;;;;;4888500;29;20547;-77
2023/11/09 10:44:31;;;;;;;10.98;5.18;;;;;;;;;;4888364;29;20398;-76
2023/11/09 10:47:02;;;;;;;11.77;5.75;;;;;;;;;;4888701;29;20060;-74
2023/11/09 10:49:43;;;;;;;11.02;5.80;;;;;;;;;;4887905;29;20049;-74
2023/11/09 10:52:16;;;;;;;10.88;5.70;;;;;;;;;;4887190;29;20064;-78
2023/11/09 10:54:51;;;;;;;9.07;4.82;;;;;;;;;;4888171;29;20508;-77
2023/11/09 10:57:22;;;;;;;10.93;6.03;;;;;;;;;;4888176;29;20049;-76
2023/11/09 10:59:55;;;;;;;15.32;6.47;;;;;;;;;;4888773;29;20052;-78
2023/11/09 11:02:29;;;;;;;12.77;5.72;;;;;;;;;;4888191;29;20053;-78
2023/11/09 11:05:05;;;;;;;15.13;5.72;;;;;;;;;;4887676;29;20055;-75
2023/11/09 11:07:39;;;;;;;13.18;5.80;;;;;;;;;;4887628;29;20063;-77
2023/11/09 11:10:16;;;;;;;13.75;5.72;;;;;;;;;;4910746;29;20048;-76
2023/11/09 11:12:49;;;;;;;10.93;4.82;;;;;;;;;;4925778;29;20039;-74
2023/11/09 11:15:32;;;;;;;14.95;5.25;;;;;;;;;;4924067;29;20051;-74
2023/11/09 11:18:36;;;;;;;19.10;5.25;;;;;;;;;;4924752;29;20504;-78
2023/11/09 11:21:23;;;;;;;14.05;4.88;;;;;;;;;;4918018;29;20055;-77
2023/11/09 11:24:00;;;;;;;11.32;4.88;;;;;;;;;;4925367;29;20530;-74
2023/11/09 11:26:45;;;;;;;11.45;4.30;;;;;;;;;;4925539;29;20427;-81
2023/11/09 11:29:39;;;;;;;10.88;4.63;;;;;;;;;;4926027;29;20051;-73
2023/11/09 11:32:11;;;;;;;13.57;4.85;;;;;;;;;;4926586;29;20048;-75
2023/11/09 11:34:56;;;;;;;14.40;5.10;;;;;;;;;;4926364;29;20788;-77
2023/11/09 11:37:32;;;;;;;12.40;5.22;;;;;;;;;;4927006;29;20733;-77
2023/11/09 11:40:08;;;;;;;12.68;5.10;;;;;;;;;;4926605;29;20040;-76
2023/11/09 11:42:39;;;;;;;16.80;5.20;;;;;;;;;;4925713;29;21097;-72
2023/11/09 11:45:11;;;;;;;13.30;4.88;;;;;;;;;;4924901;29;20054;-73
2023/11/09 11:47:45;;;;;;;11.65;5.10;;;;;;;;;;4923380;29;20051;-74
2023/11/09 11:50:17;;;;;;;11.38;5.00;;;;;;;;;;4926076;29;20082;-74
2023/11/09 11:52:49;;;;;;;13.88;5.10;;;;;;;;;;4929839;29;20051;-73
2023/11/09 11:55:31;;;;;;;17.08;5.35;;;;;;;;;;4929745;29;20062;-74
2023/11/09 11:58:03;;;;;;;14.75;5.35;;;;;;;;;;4929258;29;20060;-74
2023/11/09 12:00:40;;;;;;;12.13;5.30;;;;;;;;;;4928896;29;20050;-79
2023/11/09 12:03:12;;;;;;;13.73;5.57;;;;;;;;;;4928539;29;20071;-74
2023/11/09 12:05:43;;;;;;;13.93;5.50;;;;;;;;;;4927850;29;20048;-75
2023/11/09 12:08:16;;;;;;;17.00;5.15;;;;;;;;;;4928994;29;20052;-73
2023/11/09 12:10:48;;;;;;;12.05;4.95;;;;;;;;;;4928952;29;20055;-74
2023/11/09 12:13:21;;;;;;;12.05;5.43;;;;;;;;;;4928557;29;20691;-78
2023/11/09 12:15:52;;;;;;;10.38;4.22;;;;;;;;;;4929214;29;20384;-77
2023/11/09 12:18:25;;;;;;;10.45;4.38;;;;;;;;;;4928523;29;20055;-75
2023/11/09 12:20:58;;;;;;;11.65;5.47;;;;;;;;;;4928238;29;20063;-74
2023/11/09 12:23:29;;;;;;;13.55;5.90;;;;;;;;;;4928651;29;20055;-75
2023/11/09 12:26:07;;;;;;;13.30;5.25;;;;;;;;;;4928849;29;20059;-74
2023/11/09 12:28:39;;;;;;;8.93;3.97;;;;;;;;;;4927585;29;20510;-73
2023/11/09 12:31:13;;;;;;;12.63;5.60;;;;;;;;;;4927900;29;20052;-76
2023/11/09 12:34:14;;;;;;;9.60;4.70;;;;;;;;;;4928490;29;20095;-75
2023/11/09 12:36:46;;;;;;;10.30;4.40;;;;;;;;;;4928841;29;20063;-77
2023/11/09 12:39:31;;;;;;;10.18;4.45;;;;;;;;;;4928653;29;20063;-77
2023/11/09 12:42:10;;;;;;;9.20;4.35;;;;;;;;;;4929207;29;20051;-78
2023/11/09 12:44:44;;;;;;;11.98;4.38;;;;;;;;;;4928964;29;20051;-74
2023/11/09 12:47:20;;;;;;;8.93;3.97;;;;;;;;;;4927505;29;20082;-73
2023/11/09 12:50:03;;;;;;;9.20;3.00;;;;;;;;;;4927381;29;20056;-76
2023/11/09 12:52:37;;;;;;;9.60;3.85;;;;;;;;;;4929401;29;20055;-74
2023/11/09 12:55:08;;;;;;;12.80;3.97;;;;;;;;;;4929521;29;20062;-76
2023/11/09 12:57:42;;;;;;;15.00;2.80;;;;;;;;;;4928961;29;20427;-76
2023/11/09 13:00:29;;;;;;;23.35;3.63;;;;;;;;;;4927847;29;20061;-75
2023/11/09 13:03:03;;;;;;;13.77;2.50;;;;;;;;;;4927606;29;20051;-76
2023/11/09 13:05:38;;;;;;;8.93;2.25;;;;;;;;;;4929014;29;20044;-75
2023/11/09 13:08:12;;;;;;;17.33;3.05;;;;;;;;;;4929667;29;20060;-75
2023/11/09 13:10:56;;;;;;;9.80;2.90;;;;;;;;;;4929137;29;20067;-76
2023/11/09 13:13:30;;;;;;;8.50;2.42;;;;;;;;;;4928558;29;20051;-77
2023/11/09 13:16:14;;;;;;;7.55;2.50;;;;;;;;;;4929490;29;20530;-75
2023/11/09 13:18:50;;;;;;;12.32;2.92;;;;;;;;;;4928497;29;20427;-76
2023/11/09 13:21:23;;;;;;;10.48;2.42;;;;;;;;;;4928548;29;20527;-77
2023/11/09 13:23:55;;;;;;;12.52;2.72;;;;;;;;;;4928176;29;20538;-75
2023/11/09 13:26:28;;;;;;;12.57;2.72;;;;;;;;;;4929559;29;20051;-76
2023/11/09 13:29:10;;;;;;;18.58;2.90;;;;;;;;;;4928254;29;20052;-74
2023/11/09 13:31:42;;;;;;;13.20;2.70;;;;;;;;;;4927999;29;20063;-74
2023/11/09 13:34:13;;;;;;;12.85;2.47;;;;;;;;;;4927756;29;20059;-75
2023/11/09 13:36:57;;;;;;;10.55;2.22;;;;;;;;;;4926082;29;20044;-77
2023/11/09 13:42:06;;;;;;;7.32;2.30;;;;;;;;;;4927048;29;20094;-73
2023/11/09 13:44:37;;;;;;;12.73;2.40;;;;;;;;;;4928123;29;20079;-75
2023/11/09 13:47:09;;;;;;;11.68;2.40;;;;;;;;;;4927202;29;20430;-76
2023/11/09 13:49:39;;;;;;;10.10;2.28;;;;;;;;;;4927351;29;20048;-75
2023/11/09 13:52:26;;;;;;;15.02;2.33;;;;;;;;;;4911151;29;20047;-75
2023/11/09 13:55:13;;;;;;;10.88;1.83;;;;;;;;;;4927556;29;20055;-74
2023/11/09 13:57:47;;;;;;;12.82;2.35;;;;;;;;;;4928103;29;20052;-78
2023/11/09 14:00:24;;;;;;;11.98;2.10;;;;;;;;;;4928003;29;20526;-76
2023/11/09 14:02:55;;;;;;;12.65;2.28;;;;;;;;;;4925756;29;20059;-74
2023/11/09 14:05:26;;;;;;;16.13;2.28;;;;;;;;;;4926850;29;20067;-78
2023/11/09 14:08:02;;;;;;;8.27;1.48;;;;;;;;;;4927321;29;20059;-75
2023/11/09 14:10:33;;;;;;;13.10;2.22;;;;;;;;;;4925633;29;20423;-75
2023/11/09 14:13:12;;;;;;;7.57;1.77;;;;;;;;;;4926927;29;20048;-75
2023/11/09 14:15:49;;;;;;;18.85;2.47;;;;;;;;;;4925633;29;20059;-75
2023/11/09 14:21:17;;;;;;;12.05;1.60;;;;;;;;;;4924922;29;20059;-76
2023/11/09 14:23:49;;;;;;;8.80;1.50;;;;;;;;;;4925867;29;20053;-74
2023/11/09 14:26:27;;;;;;;6.90;1.80;;;;;;;;;;4926836;29;20059;-76
2023/11/09 14:29:08;;;;;;;10.77;1.60;;;;;;;;;;4926425;29;20047;-76
2023/11/09 14:31:42;;;;;;;7.18;2.08;;;;;;;;;;4926440;29;20051;-76
2023/11/09 14:34:14;;;;;;;7.55;1.25;;;;;;;;;;4925776;29;20511;-76
2023/11/09 14:36:48;;;;;;;4.75;1.48;;;;;;;;;;4925097;29;20043;-77
2023/11/09 14:40:23;;;;;;;6.15;1.55;;;;;;;;;;4924628;29;20071;-77
2023/11/09 14:42:24;;;;;;;6.63;1.58;;;;;;;;;;4922781;29;20056;-76
2023/11/09 14:44:57;;;;;;;5.90;1.60;;;;;;;;;;4926029;29;20046;-77
2023/11/09 14:47:36;;;;;;;10.93;1.83;;;;;;;;;;4924911;29;20060;-76
2023/11/09 14:50:10;;;;;;;5.05;1.60;;;;;;;;;;4925802;29;20055;-76
2023/11/09 14:55:31;;;;;;;10.65;1.88;;;;;;;;;;4926335;29;20055;-76
2023/11/09 14:58:18;;;;;;;13.77;1.85;;;;;;;;;;4924626;29;20052;-77
2023/11/09 15:00:51;;;;;;;7.80;1.90;;;;;;;;;;4924970;29;20055;-77
2023/11/09 15:03:26;;;;;;;10.77;2.10;;;;;;;;;;4925131;29;20071;-80
2023/11/09 15:05:59;;;;;;;7.60;1.63;;;;;;;;;;4926212;29;20511;-74
2023/11/09 15:08:31;;;;;;;9.10;2.03;;;;;;;;;;4924988;29;20051;-76
2023/11/09 15:11:06;;;;;;;7.97;1.65;;;;;;;;;;4925152;29;20059;-76
2023/11/09 15:13:38;;;;;;;7.97;2.28;;;;;;;;;;4927077;29;20063;-75
2023/11/09 15:16:17;;;;;;;11.02;3.05;;;;;;;;;;4925672;29;20131;-76
2023/11/09 15:18:50;;;;;;;6.55;2.03;;;;;;;;;;4926164;29;20817;-77
2023/11/09 15:21:21;;;;;;;6.15;1.70;;;;;;;;;;4926507;29;20515;-75
2023/11/09 15:23:52;;;;;;;9.75;2.08;;;;;;;;;;4927693;29;20047;-76